createdAt,value
2023-01-07T00:00:06.620Z,4.33
2023-01-07T00:02:34.459Z,5.07
2023-01-07T00:05:07.111Z,3.73
2023-01-07T00:07:36.376Z,3.70
2023-01-07T00:10:04.393Z,4.17
2023-01-07T00:12:32.235Z,3.17
2023-01-07T00:15:00.146Z,4.10
2023-01-07T00:17:28.171Z,3.87
2023-01-07T00:19:58.907Z,4.73
2023-01-07T00:22:26.896Z,3.83
2023-01-07T00:24:56.313Z,4.33
2023-01-07T00:27:25.382Z,3.60
2023-01-07T00:29:53.331Z,3.40
2023-01-07T00:32:21.213Z,3.80
2023-01-07T00:34:49.038Z,4.17
2023-01-07T00:37:33.356Z,4.40
2023-01-07T00:40:02.588Z,5.37
2023-01-07T00:42:47.718Z,3.57
2023-01-07T00:45:15.482Z,4.70
2023-01-07T00:47:43.323Z,3.73
2023-01-07T00:50:11.412Z,5.20
2023-01-07T00:52:39.253Z,3.10
2023-01-07T00:55:11.031Z,3.63
2023-01-07T00:57:38.744Z,4.87
2023-01-07T01:00:07.630Z,5.53
2023-01-07T01:02:35.578Z,5.10
2023-01-07T01:05:03.545Z,4.30
2023-01-07T01:07:31.338Z,4.10
2023-01-07T01:09:59.115Z,5.40
2023-01-07T01:12:30.214Z,4.43
2023-01-07T01:14:58.239Z,6.30
2023-01-07T01:17:26.045Z,3.07
2023-01-07T01:19:53.831Z,5.30
2023-01-07T01:22:21.602Z,3.60
2023-01-07T01:24:50.149Z,3.40
2023-01-07T01:27:18.286Z,6.70
2023-01-07T01:29:47.610Z,3.23
2023-01-07T01:32:15.682Z,4.47
2023-01-07T01:34:43.477Z,4.30
2023-01-07T01:37:11.231Z,4.00
2023-01-07T01:39:38.986Z,3.43
2023-01-07T01:42:07.246Z,4.50
2023-01-07T01:44:38.366Z,3.90
2023-01-07T01:47:15.340Z,3.23
2023-01-07T01:49:48.980Z,2.80
2023-01-07T01:52:18.861Z,3.10
2023-01-07T01:54:52.681Z,4.10
2023-01-07T01:57:22.191Z,3.90
2023-01-07T01:59:53.056Z,4.10
2023-01-07T02:02:26.910Z,3.80
2023-01-07T02:04:55.952Z,4.10
2023-01-07T02:07:23.751Z,3.73
2023-01-07T02:09:59.604Z,3.50
2023-01-07T02:12:43.989Z,3.03
2023-01-07T02:15:14.352Z,3.23
2023-01-07T02:17:58.737Z,3.23
2023-01-07T02:20:44.104Z,4.67
2023-01-07T02:23:48.260Z,3.17
2023-01-07T02:26:44.468Z,4.20
2023-01-07T02:29:41.779Z,3.60
2023-01-07T02:32:26.443Z,2.80
2023-01-07T02:35:06.205Z,3.03
2023-01-07T02:37:44.557Z,4.20
2023-01-07T02:40:19.779Z,4.90
2023-01-07T02:43:00.641Z,3.43
2023-01-07T02:45:31.057Z,8.50
2023-01-07T02:48:04.194Z,3.47
2023-01-07T02:50:32.017Z,3.57
2023-01-07T02:52:59.835Z,3.70
2023-01-07T02:55:36.893Z,5.37
2023-01-07T02:58:27.206Z,4.70
2023-01-07T03:01:09.558Z,4.50
2023-01-07T03:03:54.707Z,7.70
2023-01-07T03:06:37.311Z,5.53
2023-01-07T03:09:11.718Z,5.97
2023-01-07T03:11:46.064Z,6.60
2023-01-07T03:14:19.737Z,5.67
2023-01-07T03:16:54.985Z,4.80
2023-01-07T03:19:28.396Z,3.63
2023-01-07T03:22:02.111Z,4.73
2023-01-07T03:24:32.216Z,4.07
2023-01-07T03:27:04.665Z,3.33
2023-01-07T03:29:35.545Z,4.20
2023-01-07T03:32:10.156Z,4.83
2023-01-07T03:34:40.429Z,3.63
2023-01-07T03:37:11.822Z,3.10
2023-01-07T03:39:40.967Z,3.37
2023-01-07T03:42:27.110Z,2.87
2023-01-07T03:44:55.031Z,2.93
2023-01-07T03:47:23.361Z,3.77
2023-01-07T03:49:52.547Z,5.83
2023-01-07T03:52:20.359Z,3.53
2023-01-07T03:54:48.213Z,2.90
2023-01-07T03:57:15.969Z,4.00
2023-01-07T03:59:43.826Z,3.67
2023-01-07T04:02:11.786Z,3.40
2023-01-07T04:04:39.835Z,3.87
2023-01-07T04:07:08.976Z,5.17
2023-01-07T04:09:36.769Z,4.97
2023-01-07T04:12:04.723Z,4.30
2023-01-07T04:14:32.543Z,3.23
2023-01-07T04:17:00.359Z,3.47
2023-01-07T04:19:28.227Z,3.70
2023-01-07T04:21:56.065Z,3.00
2023-01-07T04:24:25.250Z,3.47
2023-01-07T04:26:53.047Z,3.37
2023-01-07T04:29:21.188Z,3.10
2023-01-07T04:31:49.553Z,2.83
2023-01-07T04:34:17.423Z,3.73
2023-01-07T04:36:45.533Z,3.50
2023-01-07T04:39:13.462Z,3.50
2023-01-07T04:41:42.624Z,2.83
2023-01-07T04:44:10.774Z,4.77
2023-01-07T04:46:38.605Z,3.30
2023-01-07T04:49:06.452Z,3.20
2023-01-07T04:51:34.238Z,3.30
2023-01-07T04:54:02.020Z,4.60
2023-01-07T04:56:29.817Z,3.70
2023-01-07T04:58:58.896Z,3.40
2023-01-07T05:01:27.674Z,3.53
2023-01-07T05:03:55.656Z,11.10
2023-01-07T05:06:23.500Z,3.63
2023-01-07T05:08:51.478Z,3.43
2023-01-07T05:11:21.576Z,3.10
2023-01-07T05:13:50.255Z,3.37
2023-01-07T05:16:19.526Z,2.97
2023-01-07T05:18:47.431Z,5.00
2023-01-07T05:21:15.185Z,4.10
2023-01-07T05:23:43.138Z,4.60
2023-01-07T05:26:10.997Z,3.43
2023-01-07T05:28:38.855Z,3.43
2023-01-07T05:31:06.703Z,2.70
2023-01-07T05:33:36.028Z,3.73
2023-01-07T05:36:03.897Z,3.97
2023-01-07T05:38:31.731Z,5.03
2023-01-07T05:40:59.619Z,2.70
2023-01-07T05:43:27.450Z,4.00
2023-01-07T05:45:55.995Z,3.40
2023-01-07T05:48:23.834Z,3.63
2023-01-07T05:50:53.012Z,3.90
2023-01-07T05:53:20.876Z,3.20
2023-01-07T05:55:48.758Z,5.57
2023-01-07T05:58:16.695Z,3.40
2023-01-07T06:00:44.921Z,3.10
2023-01-07T06:03:12.777Z,3.30
2023-01-07T06:05:40.640Z,3.93
2023-01-07T06:08:10.265Z,3.53
2023-01-07T06:10:38.108Z,4.30
2023-01-07T06:13:05.977Z,3.80
2023-01-07T06:15:33.774Z,3.10
2023-01-07T06:18:01.576Z,2.73
2023-01-07T06:20:29.642Z,3.30
2023-01-07T06:22:57.414Z,3.30
2023-01-07T06:25:26.570Z,4.13
2023-01-07T06:27:54.346Z,3.70
2023-01-07T06:30:22.331Z,5.33
2023-01-07T06:32:50.244Z,4.03
2023-01-07T06:35:18.343Z,3.27
2023-01-07T06:37:46.159Z,3.23
2023-01-07T06:40:13.977Z,3.80
2023-01-07T06:42:43.157Z,4.50
2023-01-07T06:45:11.972Z,3.07
2023-01-07T06:47:39.769Z,4.07
2023-01-07T06:50:08.573Z,3.47
2023-01-07T06:52:36.415Z,4.50
2023-01-07T06:55:04.439Z,4.13
2023-01-07T06:57:32.879Z,2.67
2023-01-07T07:00:02.101Z,2.80
2023-01-07T07:02:30.275Z,3.30
2023-01-07T07:04:58.271Z,3.70
2023-01-07T07:07:26.516Z,2.50
2023-01-07T07:09:54.351Z,4.90
2023-01-07T07:12:22.205Z,4.80
2023-01-07T07:14:50.042Z,4.33
2023-01-07T07:17:19.174Z,3.97
2023-01-07T07:19:46.946Z,4.20
2023-01-07T07:22:14.808Z,5.80
2023-01-07T07:24:42.730Z,5.53
2023-01-07T07:27:10.517Z,4.30
2023-01-07T07:29:38.281Z,5.17
2023-01-07T07:32:06.537Z,5.97
2023-01-07T07:34:36.181Z,7.60
2023-01-07T07:37:04.150Z,4.73
2023-01-07T07:39:31.943Z,5.83
2023-01-07T07:41:59.847Z,4.33
2023-01-07T07:44:27.634Z,8.07
2023-01-07T07:46:55.449Z,5.00
2023-01-07T07:49:23.285Z,6.83
2023-01-07T07:51:52.409Z,6.40
2023-01-07T07:54:21.818Z,4.70
2023-01-07T07:56:51.564Z,5.30
2023-01-07T07:59:19.327Z,6.53
2023-01-07T08:01:47.349Z,5.23
2023-01-07T08:04:15.288Z,5.17
2023-01-07T08:06:43.153Z,4.77
2023-01-07T08:09:12.244Z,4.47
2023-01-07T08:11:40.002Z,5.67
2023-01-07T08:14:07.764Z,5.13
2023-01-07T08:16:35.639Z,7.73
2023-01-07T08:19:03.429Z,9.10
2023-01-07T08:21:31.161Z,7.00
2023-01-07T08:23:58.884Z,5.60
2023-01-07T08:26:28.026Z,9.87
2023-01-07T08:28:55.799Z,9.23
2023-01-07T08:31:23.711Z,4.20
2023-01-07T08:33:51.506Z,4.53
2023-01-07T08:36:23.011Z,4.97
2023-01-07T08:38:52.342Z,7.63
2023-01-07T08:41:20.790Z,6.00
2023-01-07T08:43:50.264Z,5.17
2023-01-07T08:46:18.376Z,5.50
2023-01-07T08:48:46.170Z,4.93
2023-01-07T08:51:14.494Z,5.77
2023-01-07T08:53:42.542Z,5.97
2023-01-07T08:56:10.351Z,5.83
2023-01-07T08:58:38.394Z,5.00
2023-01-07T09:01:08.474Z,6.93
2023-01-07T09:03:36.639Z,9.17
2023-01-07T09:06:04.570Z,3.97
2023-01-07T09:08:32.494Z,4.57
2023-01-07T09:11:00.289Z,4.03
2023-01-07T09:13:28.187Z,3.27
2023-01-07T09:15:55.994Z,3.40
2023-01-07T09:18:25.150Z,5.13
2023-01-07T09:20:53.006Z,5.83
2023-01-07T09:23:20.995Z,3.70
2023-01-07T09:25:48.744Z,3.30
2023-01-07T09:28:16.503Z,6.07
2023-01-07T09:30:44.515Z,5.00
2023-01-07T09:33:12.414Z,5.30
2023-01-07T09:35:41.565Z,5.40
2023-01-07T09:38:09.410Z,3.33
2023-01-07T09:40:40.278Z,3.10
2023-01-07T09:43:15.160Z,3.80
2023-01-07T09:45:47.573Z,4.40
2023-01-07T09:48:22.040Z,4.33
2023-01-07T09:50:56.538Z,5.10
2023-01-07T09:53:27.514Z,4.67
2023-01-07T09:56:11.907Z,4.37
2023-01-07T09:58:42.651Z,4.57
2023-01-07T10:01:24.209Z,6.80
2023-01-07T10:04:03.492Z,3.93
2023-01-07T10:06:43.917Z,3.60
2023-01-07T10:09:22.800Z,5.10
2023-01-07T10:12:02.911Z,4.43
2023-01-07T10:14:53.745Z,4.20
2023-01-07T10:17:29.978Z,4.63
2023-01-07T10:20:03.461Z,3.53
2023-01-07T10:22:37.500Z,4.77
2023-01-07T10:25:14.848Z,4.80
2023-01-07T10:27:46.204Z,3.70
2023-01-07T10:30:19.257Z,4.00
2023-01-07T10:32:49.680Z,3.40
2023-01-07T10:35:21.219Z,3.50
2023-01-07T10:37:50.449Z,4.13
2023-01-07T10:40:28.966Z,3.53
2023-01-07T10:43:01.993Z,3.73
2023-01-07T10:45:42.271Z,5.20
2023-01-07T10:48:37.042Z,3.50
2023-01-07T10:51:35.424Z,5.77
2023-01-07T10:54:14.849Z,5.90
2023-01-07T10:56:45.888Z,3.87
2023-01-07T10:59:18.298Z,4.40
2023-01-07T11:01:51.759Z,3.90
2023-01-07T11:04:20.032Z,3.50
2023-01-07T11:06:53.207Z,4.40
2023-01-07T11:09:26.238Z,3.07
2023-01-07T11:11:56.288Z,7.20
2023-01-07T11:14:27.151Z,2.80
2023-01-07T11:17:01.649Z,4.00
2023-01-07T11:19:44.157Z,5.50
2023-01-07T11:22:30.646Z,4.87
2023-01-07T11:25:01.069Z,10.50
2023-01-07T11:27:30.740Z,3.17
2023-01-07T11:30:01.198Z,3.50
2023-01-07T11:32:31.795Z,3.40
2023-01-07T11:35:01.813Z,3.17
2023-01-07T11:37:39.145Z,3.70
2023-01-07T11:40:24.659Z,3.43
2023-01-07T11:42:55.022Z,3.60
2023-01-07T11:45:24.919Z,3.10
2023-01-07T11:48:15.704Z,3.33
2023-01-07T11:50:45.275Z,5.73
2023-01-07T11:53:30.537Z,4.30
2023-01-07T11:56:05.700Z,3.63
2023-01-07T11:58:35.019Z,3.10
2023-01-07T12:01:15.443Z,7.60
2023-01-07T12:03:45.238Z,5.23
2023-01-07T12:06:24.533Z,3.80
2023-01-07T12:08:56.163Z,3.97
2023-01-07T12:11:31.874Z,3.90
2023-01-07T12:14:08.533Z,3.80
2023-01-07T12:16:37.115Z,4.30
2023-01-07T12:19:31.430Z,4.40
2023-01-07T12:22:11.493Z,4.10
2023-01-07T12:25:16.992Z,4.17
2023-01-07T12:27:53.686Z,4.20
2023-01-07T12:30:35.866Z,3.53
2023-01-07T12:33:16.795Z,3.20
2023-01-07T12:35:48.505Z,3.10
2023-01-07T12:38:20.617Z,3.37
2023-01-07T12:40:52.557Z,3.10
2023-01-07T12:43:26.635Z,3.30
2023-01-07T12:45:57.002Z,4.10
2023-01-07T12:48:31.608Z,3.57
2023-01-07T12:51:02.841Z,4.23
2023-01-07T12:53:36.913Z,3.50
2023-01-07T12:56:08.537Z,3.77
2023-01-07T12:58:46.739Z,3.07
2023-01-07T13:01:25.064Z,4.53
2023-01-07T13:04:07.002Z,3.50
2023-01-07T13:06:50.716Z,2.70
2023-01-07T13:09:26.767Z,3.57
2023-01-07T13:12:41.141Z,3.23
2023-01-07T13:15:13.868Z,3.37
2023-01-07T13:17:41.727Z,3.73
2023-01-07T13:20:13.424Z,2.77
2023-01-07T13:22:45.537Z,3.10
2023-01-07T13:25:25.047Z,3.20
2023-01-07T13:28:19.366Z,3.73
2023-01-07T13:31:01.128Z,3.40
2023-01-07T13:33:34.906Z,3.27
2023-01-07T13:36:14.121Z,3.47
2023-01-07T13:39:19.422Z,3.00
2023-01-07T13:42:01.718Z,3.73
2023-01-07T13:44:51.422Z,4.80
2023-01-07T13:47:25.115Z,3.20
2023-01-07T13:49:57.558Z,4.63
2023-01-07T13:52:30.558Z,5.37
2023-01-07T13:55:02.702Z,3.30
2023-01-07T13:57:44.448Z,3.43
2023-01-07T14:00:42.147Z,5.20
2023-01-07T14:03:34.020Z,4.33
2023-01-07T14:06:36.452Z,2.50
2023-01-07T14:09:26.549Z,3.30
2023-01-07T14:12:31.660Z,3.30
2023-01-07T14:15:27.485Z,3.47
2023-01-07T14:18:36.941Z,4.93
2023-01-07T14:21:19.103Z,2.70
2023-01-07T14:24:01.407Z,5.60
2023-01-07T14:26:35.823Z,9.80
2023-01-07T14:29:31.808Z,7.80
2023-01-07T14:32:27.910Z,3.57
2023-01-07T14:34:58.458Z,3.87
2023-01-07T14:37:36.340Z,3.00
2023-01-07T14:40:37.287Z,3.20
2023-01-07T14:43:45.293Z,3.30
2023-01-07T14:46:47.932Z,3.60
2023-01-07T14:49:41.305Z,2.73
2023-01-07T14:52:21.233Z,2.57
2023-01-07T14:55:22.929Z,3.13
2023-01-07T14:58:03.006Z,3.13
2023-01-07T15:01:10.847Z,3.63
2023-01-07T15:03:55.987Z,2.83
2023-01-07T15:06:27.324Z,6.83
2023-01-07T15:09:19.693Z,5.37
2023-01-07T15:12:07.678Z,5.77
2023-01-07T15:14:59.116Z,8.30
2023-01-07T15:17:27.550Z,10.70
2023-01-07T15:19:56.304Z,8.20
2023-01-07T15:22:53.485Z,5.40
2023-01-07T15:25:33.303Z,4.87
2023-01-07T15:28:12.002Z,5.83
2023-01-07T15:30:52.286Z,4.40
2023-01-07T15:33:50.048Z,3.13
2023-01-07T15:36:18.023Z,4.53
2023-01-07T15:38:50.614Z,4.30
2023-01-07T15:41:29.970Z,6.50
2023-01-07T15:44:01.868Z,4.47
2023-01-07T15:46:32.096Z,7.20
2023-01-07T15:49:14.622Z,4.67
2023-01-07T15:51:44.015Z,6.70
2023-01-07T15:54:27.004Z,6.03
2023-01-07T15:56:59.617Z,4.17
2023-01-07T15:59:32.130Z,9.73
2023-01-07T16:02:05.692Z,3.70
2023-01-07T16:04:37.041Z,4.23
2023-01-07T16:07:04.968Z,7.53
2023-01-07T16:09:34.254Z,5.53
2023-01-07T16:12:02.219Z,8.03
2023-01-07T16:14:37.971Z,3.50
2023-01-07T16:17:18.497Z,7.23
2023-01-07T16:19:46.541Z,4.10
2023-01-07T16:22:16.929Z,5.17
2023-01-07T16:24:53.346Z,4.03
2023-01-07T16:27:28.388Z,4.80
2023-01-07T16:29:59.565Z,7.47
2023-01-07T16:32:28.254Z,8.67
2023-01-07T16:35:09.135Z,7.60
2023-01-07T16:37:40.505Z,10.33
2023-01-07T16:40:18.428Z,12.50
2023-01-07T16:42:49.011Z,9.13
2023-01-07T16:45:30.296Z,9.27
2023-01-07T16:48:19.484Z,13.03
2023-01-07T16:50:48.220Z,14.30
2023-01-07T16:53:26.177Z,14.13
2023-01-07T16:55:55.937Z,12.20
2023-01-07T16:58:29.850Z,13.50
2023-01-07T17:01:01.407Z,12.70
2023-01-07T17:03:30.973Z,17.10
2023-01-07T17:06:02.298Z,11.10
2023-01-07T17:08:31.240Z,7.17
2023-01-07T17:11:05.679Z,5.93
2023-01-07T17:13:37.418Z,7.03
2023-01-07T17:16:26.560Z,5.60
2023-01-07T17:18:55.290Z,7.33
2023-01-07T17:21:42.534Z,4.33
2023-01-07T17:24:48.190Z,7.07
2023-01-07T17:27:26.560Z,8.73
2023-01-07T17:29:54.829Z,7.97
2023-01-07T17:32:25.048Z,6.10
2023-01-07T17:34:52.862Z,8.50
2023-01-07T17:37:20.918Z,14.17
2023-01-07T17:39:51.347Z,12.73
2023-01-07T17:42:42.340Z,11.00
2023-01-07T17:45:16.157Z,13.50
2023-01-07T17:47:45.314Z,17.27
2023-01-07T17:50:15.385Z,8.33
2023-01-07T17:52:46.029Z,10.80
2023-01-07T17:55:16.437Z,11.77
2023-01-07T17:57:44.237Z,9.43
2023-01-07T18:00:17.788Z,8.77
2023-01-07T18:02:47.553Z,11.07
2023-01-07T18:05:18.360Z,9.33
2023-01-07T18:07:46.199Z,10.40
2023-01-07T18:10:15.423Z,12.73
2023-01-07T18:12:43.618Z,14.57
2023-01-07T18:15:18.743Z,11.43
2023-01-07T18:17:48.505Z,16.60
2023-01-07T18:20:18.105Z,16.90
2023-01-07T18:22:46.561Z,15.30
2023-01-07T18:25:20.169Z,25.90
2023-01-07T18:27:48.493Z,30.00
2023-01-07T18:30:19.105Z,33.60
2023-01-07T18:32:48.355Z,26.53
2023-01-07T18:35:18.920Z,30.30
2023-01-07T18:37:49.134Z,29.90
2023-01-07T18:40:16.911Z,35.53
2023-01-07T18:42:44.710Z,31.10
2023-01-07T18:45:12.674Z,27.33
2023-01-07T18:47:42.736Z,27.63
2023-01-07T18:50:11.926Z,30.33
2023-01-07T18:52:40.292Z,23.97
2023-01-07T18:55:10.304Z,22.20
2023-01-07T18:57:38.455Z,26.00
2023-01-07T19:00:07.314Z,28.67
2023-01-07T19:02:36.092Z,33.00
2023-01-07T19:05:04.212Z,26.13
2023-01-07T19:07:33.317Z,17.13
2023-01-07T19:10:01.172Z,18.63
2023-01-07T19:12:28.979Z,21.00
2023-01-07T19:14:56.810Z,13.70
2023-01-07T19:17:24.622Z,11.03
2023-01-07T19:19:52.526Z,11.47
2023-01-07T19:22:21.114Z,11.30
2023-01-07T19:24:50.319Z,11.37
2023-01-07T19:27:18.116Z,11.87
2023-01-07T19:29:45.955Z,9.53
2023-01-07T19:32:13.755Z,8.67
2023-01-07T19:34:41.753Z,11.70
2023-01-07T19:37:09.612Z,10.03
2023-01-07T19:39:37.386Z,13.70
2023-01-07T19:42:06.908Z,10.20
2023-01-07T19:44:36.500Z,8.63
2023-01-07T19:47:04.283Z,10.30
2023-01-07T19:49:32.041Z,12.50
2023-01-07T19:51:59.876Z,9.00
2023-01-07T19:54:27.652Z,12.03
2023-01-07T19:56:55.457Z,13.63
2023-01-07T19:59:24.506Z,9.97
2023-01-07T20:01:53.577Z,11.60
2023-01-07T20:04:21.774Z,11.03
2023-01-07T20:06:50.425Z,15.93
2023-01-07T20:09:18.687Z,9.80
2023-01-07T20:11:47.023Z,14.27
2023-01-07T20:14:15.466Z,12.67
2023-01-07T20:16:44.679Z,12.00
2023-01-07T20:19:13.641Z,12.53
2023-01-07T20:21:41.638Z,11.97
2023-01-07T20:24:09.781Z,9.53
2023-01-07T20:26:38.196Z,10.30
2023-01-07T20:29:06.134Z,7.93
2023-01-07T20:31:34.509Z,12.37
2023-01-07T20:34:03.692Z,9.70
2023-01-07T20:36:33.058Z,14.03
2023-01-07T20:39:05.178Z,12.93
2023-01-07T20:41:35.023Z,11.77
2023-01-07T20:44:04.851Z,13.83
2023-01-07T20:46:34.524Z,11.93
2023-01-07T20:49:03.723Z,7.93
2023-01-07T20:51:32.126Z,10.53
2023-01-07T20:53:59.919Z,9.93
2023-01-07T20:56:31.782Z,13.80
2023-01-07T20:59:01.225Z,9.23
2023-01-07T21:01:29.411Z,16.40
2023-01-07T21:03:57.401Z,17.23
2023-01-07T21:06:26.649Z,15.10
2023-01-07T21:08:54.552Z,13.97
2023-01-07T21:11:24.339Z,12.57
2023-01-07T21:13:55.841Z,16.03
2023-01-07T21:16:24.215Z,18.97
2023-01-07T21:18:52.067Z,19.40
2023-01-07T21:21:23.568Z,15.20
2023-01-07T21:23:53.171Z,17.30
2023-01-07T21:26:21.437Z,14.43
2023-01-07T21:28:49.406Z,17.33
2023-01-07T21:31:17.935Z,16.70
2023-01-07T21:33:45.905Z,17.23
2023-01-07T21:36:16.079Z,20.10
2023-01-07T21:38:44.759Z,19.17
2023-01-07T21:41:16.398Z,16.97
2023-01-07T21:43:44.699Z,16.33
2023-01-07T21:46:12.969Z,19.13
2023-01-07T21:48:45.096Z,17.67
2023-01-07T21:51:18.114Z,16.60
2023-01-07T21:53:45.923Z,41.80
2023-01-07T21:56:16.464Z,17.07
2023-01-07T21:58:45.477Z,21.57
2023-01-07T22:01:13.970Z,20.13
2023-01-07T22:03:45.339Z,19.63
2023-01-07T22:06:18.507Z,21.73
2023-01-07T22:08:48.262Z,17.53
2023-01-07T22:11:18.747Z,14.50
2023-01-07T22:13:50.752Z,16.87
2023-01-07T22:16:19.180Z,18.83
2023-01-07T22:18:47.381Z,21.93
2023-01-07T22:21:16.914Z,21.63
2023-01-07T22:23:45.768Z,20.43
2023-01-07T22:26:15.375Z,25.90
2023-01-07T22:28:47.153Z,20.70
2023-01-07T22:31:19.363Z,21.80
2023-01-07T22:33:47.191Z,31.93
2023-01-07T22:36:19.370Z,28.00
2023-01-07T22:38:47.395Z,25.80
2023-01-07T22:41:15.343Z,20.07
2023-01-07T22:43:44.601Z,30.80
2023-01-07T22:46:16.744Z,23.13
2023-01-07T22:48:44.601Z,20.87
2023-01-07T22:51:17.204Z,17.37
2023-01-07T22:53:45.328Z,20.27
2023-01-07T22:56:14.312Z,20.93
2023-01-07T23:01:19.165Z,18.00
2023-01-07T23:03:47.397Z,22.37
2023-01-07T23:06:16.536Z,26.57
2023-01-07T23:08:44.761Z,16.00
2023-01-07T23:11:32.973Z,16.13
2023-01-07T23:14:00.872Z,14.17
2023-01-07T23:16:30.063Z,15.63
2023-01-07T23:18:57.951Z,19.63
2023-01-07T23:21:25.748Z,13.67
2023-01-07T23:23:53.519Z,15.73
2023-01-07T23:26:21.330Z,26.57
2023-01-07T23:28:49.089Z,21.13
2023-01-07T23:31:16.987Z,16.87
2023-01-07T23:33:46.216Z,22.30
2023-01-07T23:36:13.985Z,19.43
2023-01-07T23:38:41.792Z,12.20
2023-01-07T23:41:11.270Z,16.60
2023-01-07T23:43:39.176Z,13.27
2023-01-07T23:46:08.124Z,13.73
2023-01-07T23:48:37.734Z,14.50
2023-01-07T23:51:08.759Z,19.17
2023-01-07T23:53:36.688Z,21.63
2023-01-07T23:56:05.768Z,17.07
2023-01-07T23:58:34.871Z,13.23
